sensor_id;sensor_type;location;lat;lon;timestamp;pressure;altitude;pressure_sealevel;temperature;humidity
18850;BME280;4989;48.772;9.154;2023-04-08T00:05:02;98238.38;;;11.55;90.42
18850;BME280;4989;48.772;9.154;2023-04-08T00:10:05;98247.59;;;11.61;91.44
18850;BME280;4989;48.772;9.154;2023-04-08T00:15:08;98244.50;;;11.59;90.86
18850;BME280;4989;48.772;9.154;2023-04-08T00:20:11;98250.78;;;11.56;90.07
18850;BME280;4989;48.772;9.154;2023-04-08T00:25:14;98253.03;;;11.61;89.46
18850;BME280;4989;48.772;9.154;2023-04-08T00:30:17;98247.75;;;11.54;89.28
18850;BME280;4989;48.772;9.154;2023-04-08T00:35:20;98249.75;;;11.50;89.76
18850;BME280;4989;48.772;9.154;2023-04-08T00:40:23;98254.16;;;11.43;91.24
18850;BME280;4989;48.772;9.154;2023-04-08T00:45:26;98250.41;;;11.37;90.31
18850;BME280;4989;48.772;9.154;2023-04-08T00:50:29;98258.56;;;11.37;90.19
18850;BME280;4989;48.772;9.154;2023-04-08T00:55:31;98268.75;;;11.33;91.26
18850;BME280;4989;48.772;9.154;2023-04-08T01:00:36;98273.09;;;11.31;91.29
18850;BME280;4989;48.772;9.154;2023-04-08T01:06:21;98267.38;;;11.45;91.65
18850;BME280;4989;48.772;9.154;2023-04-08T01:11:31;98272.88;;;11.41;90.54
18850;BME280;4989;48.772;9.154;2023-04-08T01:16:40;98266.94;;;11.46;89.44
18850;BME280;4989;48.772;9.154;2023-04-08T01:21:44;98264.00;;;11.37;89.79
18850;BME280;4989;48.772;9.154;2023-04-08T01:26:47;98272.16;;;11.37;90.73
18850;BME280;4989;48.772;9.154;2023-04-08T01:31:52;98266.72;;;11.37;90.48
18850;BME280;4989;48.772;9.154;2023-04-08T01:36:57;98264.28;;;11.43;88.76
18850;BME280;4989;48.772;9.154;2023-04-08T01:42:00;98265.00;;;11.47;89.42
18850;BME280;4989;48.772;9.154;2023-04-08T01:47:04;98262.19;;;11.31;89.87
18850;BME280;4989;48.772;9.154;2023-04-08T01:52:08;98265.84;;;11.24;90.36
18850;BME280;4989;48.772;9.154;2023-04-08T01:57:18;98253.81;;;11.21;90.97
18850;BME280;4989;48.772;9.154;2023-04-08T02:02:24;98251.03;;;11.25;89.89
18850;BME280;4989;48.772;9.154;2023-04-08T02:07:28;98265.56;;;11.18;89.87
18850;BME280;4989;48.772;9.154;2023-04-08T02:12:32;98264.78;;;11.18;89.85
18850;BME280;4989;48.772;9.154;2023-04-08T02:17:45;98264.94;;;11.11;91.22
18850;BME280;4989;48.772;9.154;2023-04-08T02:23:02;98267.97;;;11.13;92.28
18850;BME280;4989;48.772;9.154;2023-04-08T02:28:09;98266.31;;;11.19;91.80
18850;BME280;4989;48.772;9.154;2023-04-08T02:33:13;98265.97;;;11.17;90.83
18850;BME280;4989;48.772;9.154;2023-04-08T02:38:16;98269.03;;;10.99;92.78
18850;BME280;4989;48.772;9.154;2023-04-08T02:43:19;98265.41;;;11.06;91.45
18850;BME280;4989;48.772;9.154;2023-04-08T02:48:21;98267.66;;;11.11;91.32
18850;BME280;4989;48.772;9.154;2023-04-08T02:53:24;98261.38;;;11.14;90.68
18850;BME280;4989;48.772;9.154;2023-04-08T02:58:28;98268.38;;;10.91;91.45
18850;BME280;4989;48.772;9.154;2023-04-08T03:03:30;98264.97;;;10.64;93.59
18850;BME280;4989;48.772;9.154;2023-04-08T03:08:33;98268.66;;;10.53;95.23
18850;BME280;4989;48.772;9.154;2023-04-08T03:13:36;98268.16;;;10.59;94.52
18850;BME280;4989;48.772;9.154;2023-04-08T03:18:39;98261.13;;;10.61;94.36
18850;BME280;4989;48.772;9.154;2023-04-08T03:23:41;98263.16;;;10.81;91.71
18850;BME280;4989;48.772;9.154;2023-04-08T03:28:44;98269.53;;;10.70;92.17
18850;BME280;4989;48.772;9.154;2023-04-08T03:33:46;98268.16;;;10.59;91.77
18850;BME280;4989;48.772;9.154;2023-04-08T03:38:49;98275.25;;;10.52;92.58
18850;BME280;4989;48.772;9.154;2023-04-08T03:43:52;98277.88;;;10.36;93.29
18850;BME280;4989;48.772;9.154;2023-04-08T03:48:55;98275.28;;;10.29;93.83
18850;BME280;4989;48.772;9.154;2023-04-08T03:53:58;98277.53;;;10.03;94.56
18850;BME280;4989;48.772;9.154;2023-04-08T03:59:00;98274.50;;;10.25;93.79
18850;BME280;4989;48.772;9.154;2023-04-08T04:04:03;98281.66;;;10.42;95.96
18850;BME280;4989;48.772;9.154;2023-04-08T04:09:06;98278.75;;;10.29;94.24
18850;BME280;4989;48.772;9.154;2023-04-08T04:14:08;98287.09;;;10.42;94.53
18850;BME280;4989;48.772;9.154;2023-04-08T04:19:11;98283.13;;;10.47;92.65
18850;BME280;4989;48.772;9.154;2023-04-08T04:24:14;98278.94;;;10.42;92.12
18850;BME280;4989;48.772;9.154;2023-04-08T04:29:16;98277.22;;;10.25;93.47
18850;BME280;4989;48.772;9.154;2023-04-08T04:34:19;98281.75;;;9.81;98.80
18850;BME280;4989;48.772;9.154;2023-04-08T04:39:22;98280.72;;;9.98;97.47
18850;BME280;4989;48.772;9.154;2023-04-08T04:44:24;98285.13;;;10.16;94.93
18850;BME280;4989;48.772;9.154;2023-04-08T04:49:27;98290.88;;;9.94;96.80
18850;BME280;4989;48.772;9.154;2023-04-08T04:54:30;98289.03;;;9.23;100.00
18850;BME280;4989;48.772;9.154;2023-04-08T04:59:32;98289.22;;;8.67;100.00
18850;BME280;4989;48.772;9.154;2023-04-08T05:04:35;98295.88;;;8.55;100.00
18850;BME280;4989;48.772;9.154;2023-04-08T05:09:37;98299.06;;;8.88;100.00
18850;BME280;4989;48.772;9.154;2023-04-08T05:14:40;98305.00;;;9.13;100.00
18850;BME280;4989;48.772;9.154;2023-04-08T05:19:43;98310.84;;;9.46;100.00
18850;BME280;4989;48.772;9.154;2023-04-08T05:24:46;98317.03;;;9.50;100.00
18850;BME280;4989;48.772;9.154;2023-04-08T05:29:48;98317.84;;;9.47;100.00
18850;BME280;4989;48.772;9.154;2023-04-08T05:34:51;98323.25;;;9.47;100.00
18850;BME280;4989;48.772;9.154;2023-04-08T05:39:54;98324.94;;;9.34;100.00
18850;BME280;4989;48.772;9.154;2023-04-08T05:44:56;98339.19;;;9.76;100.00
18850;BME280;4989;48.772;9.154;2023-04-08T05:49:59;98338.28;;;9.86;100.00
18850;BME280;4989;48.772;9.154;2023-04-08T05:55:02;98344.09;;;9.88;100.00
18850;BME280;4989;48.772;9.154;2023-04-08T06:00:06;98344.16;;;10.12;100.00
18850;BME280;4989;48.772;9.154;2023-04-08T06:05:11;98350.41;;;10.08;100.00
18850;BME280;4989;48.772;9.154;2023-04-08T06:10:13;98357.94;;;9.97;100.00
18850;BME280;4989;48.772;9.154;2023-04-08T06:15:16;98358.69;;;9.98;100.00
18850;BME280;4989;48.772;9.154;2023-04-08T06:20:19;98359.19;;;9.89;100.00
18850;BME280;4989;48.772;9.154;2023-04-08T06:25:22;98366.44;;;10.30;99.31
18850;BME280;4989;48.772;9.154;2023-04-08T06:30:25;98372.75;;;10.50;96.71
18850;BME280;4989;48.772;9.154;2023-04-08T06:35:28;98377.72;;;10.55;94.97
18850;BME280;4989;48.772;9.154;2023-04-08T06:40:30;98377.63;;;10.63;94.48
18850;BME280;4989;48.772;9.154;2023-04-08T06:45:34;98383.06;;;10.63;93.96
18850;BME280;4989;48.772;9.154;2023-04-08T06:50:36;98383.06;;;10.63;93.69
18850;BME280;4989;48.772;9.154;2023-04-08T06:55:39;98386.09;;;10.68;96.85
18850;BME280;4989;48.772;9.154;2023-04-08T07:00:42;98392.84;;;10.84;95.30
18850;BME280;4989;48.772;9.154;2023-04-08T07:05:45;98392.16;;;10.76;94.87
18850;BME280;4989;48.772;9.154;2023-04-08T07:10:48;98391.47;;;10.72;96.94
18850;BME280;4989;48.772;9.154;2023-04-08T07:15:53;98398.03;;;10.74;93.37
18850;BME280;4989;48.772;9.154;2023-04-08T07:20:56;98402.22;;;10.79;94.90
18850;BME280;4989;48.772;9.154;2023-04-08T07:26:05;98407.84;;;10.92;92.33
18850;BME280;4989;48.772;9.154;2023-04-08T07:31:17;98405.06;;;10.95;91.70
18850;BME280;4989;48.772;9.154;2023-04-08T07:36:20;98404.34;;;11.15;90.33
18850;BME280;4989;48.772;9.154;2023-04-08T07:41:23;98406.13;;;10.78;92.65
18850;BME280;4989;48.772;9.154;2023-04-08T07:46:25;98423.69;;;11.20;90.87
18850;BME280;4989;48.772;9.154;2023-04-08T07:51:28;98420.38;;;11.56;88.73
18850;BME280;4989;48.772;9.154;2023-04-08T07:56:31;98425.13;;;11.92;85.82
18850;BME280;4989;48.772;9.154;2023-04-08T08:01:34;98421.25;;;11.93;84.31
18850;BME280;4989;48.772;9.154;2023-04-08T08:06:37;98416.63;;;12.10;81.72
18850;BME280;4989;48.772;9.154;2023-04-08T08:11:39;98423.94;;;12.13;80.87
18850;BME280;4989;48.772;9.154;2023-04-08T08:16:42;98432.03;;;12.36;82.11
18850;BME280;4989;48.772;9.154;2023-04-08T08:21:46;98428.34;;;12.63;78.89
18850;BME280;4989;48.772;9.154;2023-04-08T08:26:48;98435.84;;;12.75;78.00
18850;BME280;4989;48.772;9.154;2023-04-08T08:31:51;98439.53;;;12.85;76.41
18850;BME280;4989;48.772;9.154;2023-04-08T08:36:54;98448.66;;;12.78;75.59
18850;BME280;4989;48.772;9.154;2023-04-08T08:42:00;98444.13;;;12.88;76.90
18850;BME280;4989;48.772;9.154;2023-04-08T08:47:02;98447.13;;;12.94;74.84
18850;BME280;4989;48.772;9.154;2023-04-08T08:52:06;98444.66;;;13.78;75.85
18850;BME280;4989;48.772;9.154;2023-04-08T08:57:19;98443.47;;;14.08;68.58
18850;BME280;4989;48.772;9.154;2023-04-08T09:02:29;98445.22;;;14.56;67.67
18850;BME280;4989;48.772;9.154;2023-04-08T09:07:37;98439.63;;;14.60;67.77
18850;BME280;4989;48.772;9.154;2023-04-08T09:13:01;98456.38;;;15.13;63.57
18850;BME280;4989;48.772;9.154;2023-04-08T09:18:21;98451.06;;;15.19;63.02
18850;BME280;4989;48.772;9.154;2023-04-08T09:23:37;98455.16;;;15.01;64.45
18850;BME280;4989;48.772;9.154;2023-04-08T09:28:42;98458.56;;;14.80;64.95
18850;BME280;4989;48.772;9.154;2023-04-08T09:33:45;98459.19;;;15.09;62.02
18850;BME280;4989;48.772;9.154;2023-04-08T09:38:49;98467.59;;;15.41;61.21
18850;BME280;4989;48.772;9.154;2023-04-08T09:43:56;98464.66;;;16.05;62.62
18850;BME280;4989;48.772;9.154;2023-04-08T09:54:20;98453.03;;;17.25;58.62
18850;BME280;4989;48.772;9.154;2023-04-08T09:59:25;98456.00;;;18.04;50.87
18850;BME280;4989;48.772;9.154;2023-04-08T10:04:30;98455.94;;;17.31;51.93
18850;BME280;4989;48.772;9.154;2023-04-08T10:09:34;98464.88;;;16.72;52.38
18850;BME280;4989;48.772;9.154;2023-04-08T10:14:39;98456.13;;;16.56;54.78
18850;BME280;4989;48.772;9.154;2023-04-08T10:19:42;98461.22;;;16.98;50.01
18850;BME280;4989;48.772;9.154;2023-04-08T10:35:35;98460.97;;;15.51;52.60
18850;BME280;4989;48.772;9.154;2023-04-08T10:40:39;98457.69;;;15.08;54.61
18850;BME280;4989;48.772;9.154;2023-04-08T10:45:44;98455.03;;;15.18;58.99
18850;BME280;4989;48.772;9.154;2023-04-08T10:50:57;98460.53;;;14.92;55.08
18850;BME280;4989;48.772;9.154;2023-04-08T10:56:11;98461.00;;;14.36;54.74
18850;BME280;4989;48.772;9.154;2023-04-08T11:01:16;98460.84;;;14.01;59.28
18850;BME280;4989;48.772;9.154;2023-04-08T11:06:19;98463.22;;;13.99;56.79
18850;BME280;4989;48.772;9.154;2023-04-08T11:11:22;98461.97;;;14.16;58.28
18850;BME280;4989;48.772;9.154;2023-04-08T11:16:30;98467.81;;;14.31;57.18
18850;BME280;4989;48.772;9.154;2023-04-08T11:21:37;98458.75;;;14.47;60.43
18850;BME280;4989;48.772;9.154;2023-04-08T11:26:40;98454.84;;;14.19;58.21
18850;BME280;4989;48.772;9.154;2023-04-08T11:31:43;98463.75;;;14.36;56.68
18850;BME280;4989;48.772;9.154;2023-04-08T11:36:46;98452.19;;;14.57;58.53
18850;BME280;4989;48.772;9.154;2023-04-08T11:41:49;98453.06;;;14.54;56.42
18850;BME280;4989;48.772;9.154;2023-04-08T11:46:52;98449.38;;;14.19;55.19
18850;BME280;4989;48.772;9.154;2023-04-08T11:52:02;98445.56;;;14.16;55.46
18850;BME280;4989;48.772;9.154;2023-04-08T11:57:04;98454.75;;;14.23;56.19
18850;BME280;4989;48.772;9.154;2023-04-08T12:02:07;98447.94;;;14.14;56.06
18850;BME280;4989;48.772;9.154;2023-04-08T12:07:10;98457.63;;;14.32;53.62
18850;BME280;4989;48.772;9.154;2023-04-08T12:12:13;98456.53;;;14.42;56.14
18850;BME280;4989;48.772;9.154;2023-04-08T12:17:16;98463.09;;;14.32;59.79
18850;BME280;4989;48.772;9.154;2023-04-08T12:22:18;98462.50;;;14.24;58.06
18850;BME280;4989;48.772;9.154;2023-04-08T12:27:22;98462.22;;;14.35;61.15
18850;BME280;4989;48.772;9.154;2023-04-08T12:32:25;98462.88;;;14.39;59.82
18850;BME280;4989;48.772;9.154;2023-04-08T12:37:28;98461.38;;;14.51;54.78
18850;BME280;4989;48.772;9.154;2023-04-08T12:42:30;98462.28;;;14.60;57.74
18850;BME280;4989;48.772;9.154;2023-04-08T12:47:33;98463.53;;;14.43;58.21
18850;BME280;4989;48.772;9.154;2023-04-08T12:52:35;98455.63;;;14.19;59.96
18850;BME280;4989;48.772;9.154;2023-04-08T12:57:38;98467.69;;;14.35;56.98
18850;BME280;4989;48.772;9.154;2023-04-08T13:02:41;98459.16;;;14.33;56.24
18850;BME280;4989;48.772;9.154;2023-04-08T13:07:45;98451.47;;;14.28;55.48
18850;BME280;4989;48.772;9.154;2023-04-08T13:12:48;98458.13;;;14.14;59.83
18850;BME280;4989;48.772;9.154;2023-04-08T13:17:52;98457.38;;;14.13;58.42
18850;BME280;4989;48.772;9.154;2023-04-08T13:22:55;98451.03;;;14.16;61.37
18850;BME280;4989;48.772;9.154;2023-04-08T13:27:58;98455.16;;;14.08;63.41
18850;BME280;4989;48.772;9.154;2023-04-08T13:33:01;98459.63;;;14.02;57.23
18850;BME280;4989;48.772;9.154;2023-04-08T13:38:03;98460.63;;;14.08;57.06
18850;BME280;4989;48.772;9.154;2023-04-08T13:43:06;98468.69;;;13.99;56.06
18850;BME280;4989;48.772;9.154;2023-04-08T13:48:09;98452.66;;;14.14;60.61
18850;BME280;4989;48.772;9.154;2023-04-08T13:53:12;98449.19;;;14.26;60.46
18850;BME280;4989;48.772;9.154;2023-04-08T13:58:15;98455.88;;;14.38;56.40
18850;BME280;4989;48.772;9.154;2023-04-08T14:03:25;98457.69;;;14.15;57.95
18850;BME280;4989;48.772;9.154;2023-04-08T14:08:29;98458.50;;;14.29;59.51
18850;BME280;4989;48.772;9.154;2023-04-08T14:13:32;98448.13;;;14.49;56.94
18850;BME280;4989;48.772;9.154;2023-04-08T14:18:35;98451.56;;;14.66;59.28
18850;BME280;4989;48.772;9.154;2023-04-08T14:23:38;98453.31;;;14.73;55.96
18850;BME280;4989;48.772;9.154;2023-04-08T14:28:41;98458.69;;;14.89;56.92
18850;BME280;4989;48.772;9.154;2023-04-08T14:33:44;98449.16;;;14.81;57.23
18850;BME280;4989;48.772;9.154;2023-04-08T14:38:46;98454.84;;;14.74;56.02
18850;BME280;4989;48.772;9.154;2023-04-08T14:43:49;98456.06;;;14.31;57.03
18850;BME280;4989;48.772;9.154;2023-04-08T14:48:52;98461.34;;;14.38;57.18
18850;BME280;4989;48.772;9.154;2023-04-08T14:53:55;98460.91;;;14.39;57.59
18850;BME280;4989;48.772;9.154;2023-04-08T14:58:58;98467.69;;;14.35;57.40
18850;BME280;4989;48.772;9.154;2023-04-08T15:04:00;98460.78;;;14.30;57.49
18850;BME280;4989;48.772;9.154;2023-04-08T15:09:03;98471.59;;;14.34;57.11
18850;BME280;4989;48.772;9.154;2023-04-08T15:14:06;98466.56;;;14.19;59.46
18850;BME280;4989;48.772;9.154;2023-04-08T15:19:08;98470.47;;;14.18;59.47
18850;BME280;4989;48.772;9.154;2023-04-08T15:24:11;98475.94;;;14.18;58.87
18850;BME280;4989;48.772;9.154;2023-04-08T15:29:15;98478.38;;;14.16;57.72
18850;BME280;4989;48.772;9.154;2023-04-08T15:34:18;98482.75;;;14.27;56.86
18850;BME280;4989;48.772;9.154;2023-04-08T15:39:21;98479.03;;;14.20;57.62
18850;BME280;4989;48.772;9.154;2023-04-08T15:44:24;98490.75;;;13.92;56.52
18850;BME280;4989;48.772;9.154;2023-04-08T15:49:27;98492.53;;;13.82;60.21
18850;BME280;4989;48.772;9.154;2023-04-08T15:54:30;98495.72;;;13.64;60.59
18850;BME280;4989;48.772;9.154;2023-04-08T15:59:33;98498.75;;;13.54;59.85
18850;BME280;4989;48.772;9.154;2023-04-08T16:04:36;98496.63;;;13.45;60.54
18850;BME280;4989;48.772;9.154;2023-04-08T16:09:38;98506.59;;;13.51;64.89
18850;BME280;4989;48.772;9.154;2023-04-08T16:14:41;98510.53;;;13.50;60.58
18850;BME280;4989;48.772;9.154;2023-04-08T16:19:44;98516.00;;;13.50;59.70
18850;BME280;4989;48.772;9.154;2023-04-08T16:24:46;98524.25;;;13.63;61.82
18850;BME280;4989;48.772;9.154;2023-04-08T16:29:49;98522.88;;;13.55;60.21
18850;BME280;4989;48.772;9.154;2023-04-08T16:34:52;98522.72;;;13.46;65.16
18850;BME280;4989;48.772;9.154;2023-04-08T16:39:55;98526.81;;;13.54;60.81
18850;BME280;4989;48.772;9.154;2023-04-08T16:44:59;98532.63;;;13.40;61.11
18850;BME280;4989;48.772;9.154;2023-04-08T16:50:02;98538.34;;;13.29;61.76
18850;BME280;4989;48.772;9.154;2023-04-08T16:55:07;98546.25;;;13.23;61.59
18850;BME280;4989;48.772;9.154;2023-04-08T17:00:10;98550.41;;;13.12;63.16
18850;BME280;4989;48.772;9.154;2023-04-08T17:05:13;98552.19;;;13.02;68.21
18850;BME280;4989;48.772;9.154;2023-04-08T17:10:16;98555.09;;;13.11;67.31
18850;BME280;4989;48.772;9.154;2023-04-08T17:15:18;98556.81;;;13.05;64.38
18850;BME280;4989;48.772;9.154;2023-04-08T17:20:21;98555.94;;;13.08;64.33
18850;BME280;4989;48.772;9.154;2023-04-08T17:25:24;98571.13;;;13.09;65.66
18850;BME280;4989;48.772;9.154;2023-04-08T17:30:27;98559.84;;;13.07;63.64
18850;BME280;4989;48.772;9.154;2023-04-08T17:35:30;98570.94;;;13.00;63.88
18850;BME280;4989;48.772;9.154;2023-04-08T17:40:33;98568.69;;;12.95;66.51
18850;BME280;4989;48.772;9.154;2023-04-08T17:45:35;98580.41;;;12.95;63.43
18850;BME280;4989;48.772;9.154;2023-04-08T17:50:38;98585.03;;;12.78;63.83
18850;BME280;4989;48.772;9.154;2023-04-08T17:55:41;98591.81;;;12.70;64.01
18850;BME280;4989;48.772;9.154;2023-04-08T18:00:43;98591.69;;;12.77;64.63
18850;BME280;4989;48.772;9.154;2023-04-08T18:05:46;98589.38;;;12.76;64.44
18850;BME280;4989;48.772;9.154;2023-04-08T18:10:49;98592.81;;;12.60;64.30
18850;BME280;4989;48.772;9.154;2023-04-08T18:15:52;98596.84;;;12.52;67.51
18850;BME280;4989;48.772;9.154;2023-04-08T18:20:55;98606.22;;;12.51;65.64
18850;BME280;4989;48.772;9.154;2023-04-08T18:25:58;98611.59;;;12.54;65.03
18850;BME280;4989;48.772;9.154;2023-04-08T18:31:00;98619.50;;;12.49;66.60
18850;BME280;4989;48.772;9.154;2023-04-08T18:36:10;98623.97;;;12.39;68.31
18850;BME280;4989;48.772;9.154;2023-04-08T18:41:14;98625.44;;;12.44;64.84
18850;BME280;4989;48.772;9.154;2023-04-08T18:46:17;98638.25;;;12.47;66.05
18850;BME280;4989;48.772;9.154;2023-04-08T18:51:21;98644.31;;;12.54;69.07
18850;BME280;4989;48.772;9.154;2023-04-08T18:56:24;98651.38;;;12.52;67.37
18850;BME280;4989;48.772;9.154;2023-04-08T19:01:28;98655.66;;;12.53;66.80
18850;BME280;4989;48.772;9.154;2023-04-08T19:06:33;98657.56;;;12.56;67.84
18850;BME280;4989;48.772;9.154;2023-04-08T19:11:37;98663.13;;;12.49;65.29
18850;BME280;4989;48.772;9.154;2023-04-08T19:16:39;98666.28;;;12.47;66.23
18850;BME280;4989;48.772;9.154;2023-04-08T19:21:43;98664.16;;;12.35;64.70
18850;BME280;4989;48.772;9.154;2023-04-08T19:26:45;98676.06;;;12.21;65.52
18850;BME280;4989;48.772;9.154;2023-04-08T19:31:50;98672.97;;;12.19;65.32
18850;BME280;4989;48.772;9.154;2023-04-08T19:36:54;98674.75;;;12.06;65.43
18850;BME280;4989;48.772;9.154;2023-04-08T19:41:57;98675.81;;;11.88;65.46
18850;BME280;4989;48.772;9.154;2023-04-08T19:47:00;98690.19;;;11.89;68.45
18850;BME280;4989;48.772;9.154;2023-04-08T19:52:02;98692.63;;;12.07;66.87
18850;BME280;4989;48.772;9.154;2023-04-08T19:57:05;98687.78;;;11.95;65.94
18850;BME280;4989;48.772;9.154;2023-04-08T20:02:10;98691.09;;;12.06;68.37
18850;BME280;4989;48.772;9.154;2023-04-08T20:07:13;98689.31;;;12.19;66.63
18850;BME280;4989;48.772;9.154;2023-04-08T20:12:16;98685.50;;;12.17;66.24
18850;BME280;4989;48.772;9.154;2023-04-08T20:17:18;98693.19;;;12.22;69.33
18850;BME280;4989;48.772;9.154;2023-04-08T20:22:22;98688.84;;;12.24;68.04
18850;BME280;4989;48.772;9.154;2023-04-08T20:27:25;98689.31;;;12.19;66.62
18850;BME280;4989;48.772;9.154;2023-04-08T20:32:29;98693.25;;;12.18;68.06
18850;BME280;4989;48.772;9.154;2023-04-08T20:37:32;98696.44;;;12.13;67.81
18850;BME280;4989;48.772;9.154;2023-04-08T20:42:35;98695.59;;;12.16;69.46
18850;BME280;4989;48.772;9.154;2023-04-08T20:47:37;98691.81;;;12.10;65.89
18850;BME280;4989;48.772;9.154;2023-04-08T20:52:40;98696.22;;;11.73;66.55
18850;BME280;4989;48.772;9.154;2023-04-08T20:57:43;98694.00;;;11.68;66.60
18850;BME280;4989;48.772;9.154;2023-04-08T21:02:45;98696.78;;;11.34;68.17
18850;BME280;4989;48.772;9.154;2023-04-08T21:07:49;98695.81;;;11.17;68.83
18850;BME280;4989;48.772;9.154;2023-04-08T21:12:52;98691.81;;;10.94;69.66
18850;BME280;4989;48.772;9.154;2023-04-08T21:17:55;98687.25;;;10.84;70.20
18850;BME280;4989;48.772;9.154;2023-04-08T21:22:58;98685.59;;;10.94;69.96
18850;BME280;4989;48.772;9.154;2023-04-08T21:28:01;98685.59;;;10.94;70.24
18850;BME280;4989;48.772;9.154;2023-04-08T21:33:04;98684.47;;;10.91;71.02
18850;BME280;4989;48.772;9.154;2023-04-08T21:38:07;98688.75;;;10.92;71.23
18850;BME280;4989;48.772;9.154;2023-04-08T21:43:09;98691.75;;;11.02;71.16
18850;BME280;4989;48.772;9.154;2023-04-08T21:48:12;98693.66;;;10.67;72.36
18850;BME280;4989;48.772;9.154;2023-04-08T21:53:15;98689.75;;;10.68;72.44
18850;BME280;4989;48.772;9.154;2023-04-08T21:58:18;98687.88;;;10.61;72.23
18850;BME280;4989;48.772;9.154;2023-04-08T22:03:20;98690.78;;;10.43;73.20
18850;BME280;4989;48.772;9.154;2023-04-08T22:08:24;98693.50;;;10.43;73.13
18850;BME280;4989;48.772;9.154;2023-04-08T22:13:26;98690.41;;;10.41;73.35
18850;BME280;4989;48.772;9.154;2023-04-08T22:18:29;98684.19;;;10.44;73.56
18850;BME280;4989;48.772;9.154;2023-04-08T22:23:32;98687.88;;;10.20;74.28
18850;BME280;4989;48.772;9.154;2023-04-08T22:28:34;98686.31;;;10.19;74.73
18850;BME280;4989;48.772;9.154;2023-04-08T22:33:38;98683.41;;;9.92;76.00
18850;BME280;4989;48.772;9.154;2023-04-08T22:38:41;98685.78;;;9.86;76.39
18850;BME280;4989;48.772;9.154;2023-04-08T22:43:44;98678.59;;;10.14;75.64
18850;BME280;4989;48.772;9.154;2023-04-08T22:48:47;98683.94;;;10.28;74.65
18850;BME280;4989;48.772;9.154;2023-04-08T22:53:51;98674.63;;;10.22;74.94
18850;BME280;4989;48.772;9.154;2023-04-08T22:58:54;98676.06;;;10.37;75.04
18850;BME280;4989;48.772;9.154;2023-04-08T23:03:57;98667.06;;;10.47;74.98
18850;BME280;4989;48.772;9.154;2023-04-08T23:09:00;98664.47;;;10.33;76.54
18850;BME280;4989;48.772;9.154;2023-04-08T23:14:02;98665.97;;;10.41;79.01
18850;BME280;4989;48.772;9.154;2023-04-08T23:19:05;98671.53;;;10.27;77.29
18850;BME280;4989;48.772;9.154;2023-04-08T23:24:08;98678.50;;;10.28;78.17
18850;BME280;4989;48.772;9.154;2023-04-08T23:29:11;98679.59;;;10.34;78.24
18850;BME280;4989;48.772;9.154;2023-04-08T23:34:14;98677.22;;;10.40;77.08
18850;BME280;4989;48.772;9.154;2023-04-08T23:39:17;98676.97;;;9.68;80.13
18850;BME280;4989;48.772;9.154;2023-04-08T23:44:21;98680.66;;;9.36;84.24
18850;BME280;4989;48.772;9.154;2023-04-08T23:49:24;98677.56;;;9.41;84.63
18850;BME280;4989;48.772;9.154;2023-04-08T23:54:26;98673.16;;;9.61;83.76
18850;BME280;4989;48.772;9.154;2023-04-08T23:59:34;98675.75;;;9.79;86.31
